sensor_id;sensor_type;location;lat;lon;timestamp;pressure;altitude;pressure_sealevel;temperature;humidity
33404;BME280;19751;40.274;18.268;2022-07-12T00:01:53;101268.22;;;23.58;66.58
33404;BME280;19751;40.274;18.268;2022-07-12T00:04:19;101263.00;;;23.56;66.84
33404;BME280;19751;40.274;18.268;2022-07-12T00:06:44;101259.16;;;23.57;67.30
33404;BME280;19751;40.274;18.268;2022-07-12T00:09:10;101257.50;;;23.56;67.67
33404;BME280;19751;40.274;18.268;2022-07-12T00:11:36;101261.31;;;23.55;67.88
33404;BME280;19751;40.274;18.268;2022-07-12T00:14:02;101257.75;;;23.55;68.06
33404;BME280;19751;40.274;18.268;2022-07-12T00:16:28;101253.91;;;23.56;68.37
33404;BME280;19751;40.274;18.268;2022-07-12T00:18:53;101258.88;;;23.59;68.69
33404;BME280;19751;40.274;18.268;2022-07-12T00:21:19;101264.13;;;23.61;68.76
33404;BME280;19751;40.274;18.268;2022-07-12T00:23:45;101264.94;;;23.61;68.79
33404;BME280;19751;40.274;18.268;2022-07-12T00:26:11;101264.94;;;23.61;69.22
33404;BME280;19751;40.274;18.268;2022-07-12T00:28:36;101280.31;;;23.57;69.41
33404;BME280;19751;40.274;18.268;2022-07-12T00:31:02;101264.84;;;23.51;69.60
33404;BME280;19751;40.274;18.268;2022-07-12T00:33:28;101270.31;;;23.46;69.99
33404;BME280;19751;40.274;18.268;2022-07-12T00:35:54;101267.03;;;23.44;70.15
33404;BME280;19751;40.274;18.268;2022-07-12T00:38:19;101267.31;;;23.47;70.13
33404;BME280;19751;40.274;18.268;2022-07-12T00:40:45;101265.41;;;23.48;70.28
33404;BME280;19751;40.274;18.268;2022-07-12T00:43:11;101261.56;;;23.49;70.16
33404;BME280;19751;40.274;18.268;2022-07-12T00:45:36;101265.09;;;23.44;70.28
33404;BME280;19751;40.274;18.268;2022-07-12T00:48:02;101269.78;;;23.44;70.30
33404;BME280;19751;40.274;18.268;2022-07-12T00:50:28;101272.75;;;23.42;70.34
33404;BME280;19751;40.274;18.268;2022-07-12T00:52:54;101265.09;;;23.44;70.42
33404;BME280;19751;40.274;18.268;2022-07-12T00:55:21;101274.44;;;23.43;70.23
33404;BME280;19751;40.274;18.268;2022-07-12T00:57:47;101268.38;;;23.41;70.31
33404;BME280;19751;40.274;18.268;2022-07-12T01:00:27;101271.13;;;23.41;70.49
33404;BME280;19751;40.274;18.268;2022-07-12T01:02:55;101275.50;;;23.42;70.40
33404;BME280;19751;40.274;18.268;2022-07-12T01:05:21;101269.78;;;23.44;70.27
33404;BME280;19751;40.274;18.268;2022-07-12T01:07:47;101264.28;;;23.44;70.04
33404;BME280;19751;40.274;18.268;2022-07-12T01:10:14;101265.09;;;23.44;70.04
33404;BME280;19751;40.274;18.268;2022-07-12T01:12:40;101262.34;;;23.44;69.93
33404;BME280;19751;40.274;18.268;2022-07-12T01:15:06;101261.53;;;23.44;70.14
33404;BME280;19751;40.274;18.268;2022-07-12T01:17:32;101269.47;;;23.40;70.03
33404;BME280;19751;40.274;18.268;2022-07-12T01:19:59;101267.53;;;23.41;69.99
33404;BME280;19751;40.274;18.268;2022-07-12T01:22:31;101265.63;;;23.41;69.94
33404;BME280;19751;40.274;18.268;2022-07-12T01:24:57;101265.63;;;23.41;69.96
33404;BME280;19751;40.274;18.268;2022-07-12T01:27:23;101264.78;;;23.41;70.06
33404;BME280;19751;40.274;18.268;2022-07-12T01:29:49;101261.22;;;23.40;70.08
33404;BME280;19751;40.274;18.268;2022-07-12T01:32:15;101274.63;;;23.31;70.38
33404;BME280;19751;40.274;18.268;2022-07-12T01:34:58;101274.63;;;23.31;70.52
33404;BME280;19751;40.274;18.268;2022-07-12T01:37:27;101271.28;;;23.29;70.93
33404;BME280;19751;40.274;18.268;2022-07-12T01:39:55;101274.03;;;23.29;71.27
33404;BME280;19751;40.274;18.268;2022-07-12T01:42:22;101270.19;;;23.30;71.62
33404;BME280;19751;40.274;18.268;2022-07-12T01:44:48;101272.94;;;23.30;71.39
33404;BME280;19751;40.274;18.268;2022-07-12T01:47:14;101271.88;;;23.31;71.76
33404;BME280;19751;40.274;18.268;2022-07-12T01:49:40;101271.03;;;23.31;71.83
33404;BME280;19751;40.274;18.268;2022-07-12T01:52:06;101267.72;;;23.29;72.06
33404;BME280;19751;40.274;18.268;2022-07-12T01:54:32;101276.78;;;23.29;72.08
33404;BME280;19751;40.274;18.268;2022-07-12T01:56:58;101271.88;;;23.31;72.28
33404;BME280;19751;40.274;18.268;2022-07-12T01:59:23;101276.53;;;23.31;72.28
33404;BME280;19751;40.274;18.268;2022-07-12T02:01:49;101266.38;;;23.31;72.55
33404;BME280;19751;40.274;18.268;2022-07-12T02:04:18;101268.81;;;23.28;72.68
33404;BME280;19751;40.274;18.268;2022-07-12T02:06:44;101273.94;;;23.19;72.99
33404;BME280;19751;40.274;18.268;2022-07-12T02:09:11;101273.94;;;23.19;73.21
33404;BME280;19751;40.274;18.268;2022-07-12T02:11:37;101272.59;;;23.22;72.90
33404;BME280;19751;40.274;18.268;2022-07-12T02:14:03;101275.91;;;23.24;72.98
33404;BME280;19751;40.274;18.268;2022-07-12T02:16:29;101276.47;;;23.26;72.73
33404;BME280;19751;40.274;18.268;2022-07-12T02:18:55;101281.72;;;23.27;72.88
33404;BME280;19751;40.274;18.268;2022-07-12T02:21:21;101272.38;;;23.28;72.63
33404;BME280;19751;40.274;18.268;2022-07-12T02:23:47;101276.78;;;23.29;72.48
33404;BME280;19751;40.274;18.268;2022-07-12T02:26:12;101263.56;;;23.26;72.62
33404;BME280;19751;40.274;18.268;2022-07-12T02:28:38;101261.06;;;23.25;72.55
33404;BME280;19751;40.274;18.268;2022-07-12T02:31:03;101263.56;;;23.26;72.30
33404;BME280;19751;40.274;18.268;2022-07-12T02:33:29;101272.88;;;23.25;72.55
33404;BME280;19751;40.274;18.268;2022-07-12T02:35:54;101265.75;;;23.24;72.50
33404;BME280;19751;40.274;18.268;2022-07-12T02:38:20;101262.41;;;23.22;72.42
33404;BME280;19751;40.274;18.268;2022-07-12T02:40:47;101272.03;;;23.20;72.79
33404;BME280;19751;40.274;18.268;2022-07-12T02:43:22;101270.31;;;23.14;72.79
33404;BME280;19751;40.274;18.268;2022-07-12T02:45:48;101272.19;;;23.08;72.98
33404;BME280;19751;40.274;18.268;2022-07-12T02:48:13;101277.41;;;23.10;73.39
33404;BME280;19751;40.274;18.268;2022-07-12T02:50:39;101276.00;;;23.02;73.19
33404;BME280;19751;40.274;18.268;2022-07-12T02:53:06;101270.19;;;22.98;73.35
33404;BME280;19751;40.274;18.268;2022-07-12T02:55:31;101274.25;;;22.96;73.73
33404;BME280;19751;40.274;18.268;2022-07-12T02:57:57;101270.97;;;22.94;74.13
33404;BME280;19751;40.274;18.268;2022-07-12T03:00:22;101279.75;;;22.96;73.91
33404;BME280;19751;40.274;18.268;2022-07-12T03:02:48;101279.75;;;22.96;74.19
33404;BME280;19751;40.274;18.268;2022-07-12T03:05:14;101285.25;;;22.96;74.17
33404;BME280;19751;40.274;18.268;2022-07-12T03:07:39;101286.34;;;22.95;74.03
33404;BME280;19751;40.274;18.268;2022-07-12T03:10:05;101294.06;;;22.98;74.40
33404;BME280;19751;40.274;18.268;2022-07-12T03:12:31;101278.41;;;22.98;74.00
33404;BME280;19751;40.274;18.268;2022-07-12T03:14:56;101286.91;;;22.97;74.22
33404;BME280;19751;40.274;18.268;2022-07-12T03:17:22;101282.00;;;22.99;74.12
33404;BME280;19751;40.274;18.268;2022-07-12T03:19:48;101280.06;;;22.99;74.48
33404;BME280;19751;40.274;18.268;2022-07-12T03:22:14;101276.50;;;22.99;74.42
33404;BME280;19751;40.274;18.268;2022-07-12T03:24:39;101279.81;;;23.01;74.62
33404;BME280;19751;40.274;18.268;2022-07-12T03:27:05;101274.31;;;23.01;74.81
33404;BME280;19751;40.274;18.268;2022-07-12T03:29:31;101284.47;;;23.00;74.89
33404;BME280;19751;40.274;18.268;2022-07-12T03:31:57;101278.16;;;23.00;75.17
33404;BME280;19751;40.274;18.268;2022-07-12T03:34:23;101280.84;;;22.95;75.48
33404;BME280;19751;40.274;18.268;2022-07-12T03:36:48;101281.94;;;22.94;76.03
33404;BME280;19751;40.274;18.268;2022-07-12T03:39:14;101281.09;;;22.93;76.45
33404;BME280;19751;40.274;18.268;2022-07-12T03:41:39;101287.44;;;22.94;76.40
33404;BME280;19751;40.274;18.268;2022-07-12T03:44:05;101284.16;;;22.97;76.59
33404;BME280;19751;40.274;18.268;2022-07-12T03:46:32;101280.34;;;22.98;76.80
33404;BME280;19751;40.274;18.268;2022-07-12T03:48:58;101288.03;;;23.01;76.98
33404;BME280;19751;40.274;18.268;2022-07-12T03:51:25;101286.72;;;23.03;76.85
33404;BME280;19751;40.274;18.268;2022-07-12T03:53:51;101290.31;;;23.09;76.80
33404;BME280;19751;40.274;18.268;2022-07-12T03:56:16;101286.50;;;23.10;76.88
33404;BME280;19751;40.274;18.268;2022-07-12T03:59:08;101299.16;;;23.11;77.10
33404;BME280;19751;40.274;18.268;2022-07-12T04:01:34;101302.22;;;23.15;76.94
33404;BME280;19751;40.274;18.268;2022-07-12T04:03:59;101297.78;;;23.14;77.12
33404;BME280;19751;40.274;18.268;2022-07-12T04:06:25;101308.78;;;23.14;76.95
33404;BME280;19751;40.274;18.268;2022-07-12T04:08:50;101302.78;;;23.17;77.22
33404;BME280;19751;40.274;18.268;2022-07-12T04:11:16;101305.28;;;23.18;77.24
33404;BME280;19751;40.274;18.268;2022-07-12T04:13:42;101303.34;;;23.19;77.28
33404;BME280;19751;40.274;18.268;2022-07-12T04:16:07;101300.88;;;23.22;77.17
33404;BME280;19751;40.274;18.268;2022-07-12T04:18:33;101302.56;;;23.23;77.10
33404;BME280;19751;40.274;18.268;2022-07-12T04:20:58;101295.97;;;23.24;77.05
33404;BME280;19751;40.274;18.268;2022-07-12T04:23:24;101302.63;;;23.28;76.88
33404;BME280;19751;40.274;18.268;2022-07-12T04:25:50;101299.34;;;23.31;77.07
33404;BME280;19751;40.274;18.268;2022-07-12T04:28:16;101306.81;;;23.36;76.87
33404;BME280;19751;40.274;18.268;2022-07-12T04:30:42;101304.09;;;23.41;76.79
33404;BME280;19751;40.274;18.268;2022-07-12T04:33:10;101311.84;;;23.44;76.73
33404;BME280;19751;40.274;18.268;2022-07-12T04:35:36;101314.88;;;23.48;76.70
33404;BME280;19751;40.274;18.268;2022-07-12T04:38:01;101314.09;;;23.52;76.39
33404;BME280;19751;40.274;18.268;2022-07-12T04:40:27;101314.97;;;23.58;76.29
33404;BME280;19751;40.274;18.268;2022-07-12T04:42:52;101316.09;;;23.62;76.13
33404;BME280;19751;40.274;18.268;2022-07-12T04:45:18;101321.94;;;23.66;75.89
33404;BME280;19751;40.274;18.268;2022-07-12T04:47:44;101315.09;;;23.68;75.81
33404;BME280;19751;40.274;18.268;2022-07-12T04:50:09;101320.03;;;23.71;75.39
33404;BME280;19751;40.274;18.268;2022-07-12T04:52:35;101315.13;;;23.73;75.46
33404;BME280;19751;40.274;18.268;2022-07-12T04:55:01;101318.44;;;23.75;75.55
33404;BME280;19751;40.274;18.268;2022-07-12T04:57:26;101319.56;;;23.79;75.51
33404;BME280;19751;40.274;18.268;2022-07-12T04:59:52;101323.72;;;23.82;75.17
33404;BME280;19751;40.274;18.268;2022-07-12T05:02:18;101319.59;;;23.85;75.06
33404;BME280;19751;40.274;18.268;2022-07-12T05:04:43;101315.50;;;23.87;75.04
33404;BME280;19751;40.274;18.268;2022-07-12T05:07:09;101325.97;;;23.90;74.75
33404;BME280;19751;40.274;18.268;2022-07-12T05:09:35;101322.72;;;23.93;74.64
33404;BME280;19751;40.274;18.268;2022-07-12T05:12:00;101322.97;;;23.97;74.18
33404;BME280;19751;40.274;18.268;2022-07-12T05:14:26;101317.53;;;24.02;74.12
33404;BME280;19751;40.274;18.268;2022-07-12T05:16:51;101324.41;;;24.04;73.80
33404;BME280;19751;40.274;18.268;2022-07-12T05:19:17;101329.41;;;24.08;73.68
33404;BME280;19751;40.274;18.268;2022-07-12T05:21:42;101330.78;;;24.10;72.99
33404;BME280;19751;40.274;18.268;2022-07-12T05:24:08;101335.75;;;24.13;72.43
33404;BME280;19751;40.274;18.268;2022-07-12T05:26:34;101333.56;;;24.15;72.11
33404;BME280;19751;40.274;18.268;2022-07-12T05:29:00;101339.38;;;24.19;71.47
33404;BME280;19751;40.274;18.268;2022-07-12T05:31:25;101334.44;;;24.21;70.76
33404;BME280;19751;40.274;18.268;2022-07-12T05:33:52;101338.31;;;24.25;70.10
33404;BME280;19751;40.274;18.268;2022-07-12T05:36:17;101337.50;;;24.29;69.83
33404;BME280;19751;40.274;18.268;2022-07-12T05:38:43;101335.88;;;24.34;69.63
33404;BME280;19751;40.274;18.268;2022-07-12T05:41:08;101344.22;;;24.39;69.59
33404;BME280;19751;40.274;18.268;2022-07-12T05:43:34;101346.72;;;24.45;69.00
33404;BME280;19751;40.274;18.268;2022-07-12T05:45:59;101344.25;;;24.49;68.45
33404;BME280;19751;40.274;18.268;2022-07-12T05:48:25;101340.16;;;24.51;68.32
33404;BME280;19751;40.274;18.268;2022-07-12T05:50:52;101348.66;;;24.55;67.76
33404;BME280;19751;40.274;18.268;2022-07-12T05:53:17;101357.50;;;24.57;67.47
33404;BME280;19751;40.274;18.268;2022-07-12T05:55:51;101357.53;;;24.62;67.55
33404;BME280;19751;40.274;18.268;2022-07-12T05:58:17;101367.19;;;24.65;66.88
33404;BME280;19751;40.274;18.268;2022-07-12T06:00:44;101366.66;;;24.68;66.54
33404;BME280;19751;40.274;18.268;2022-07-12T06:03:10;101372.44;;;24.71;65.92
33404;BME280;19751;40.274;18.268;2022-07-12T06:05:37;101367.22;;;24.75;65.03
33404;BME280;19751;40.274;18.268;2022-07-12T06:08:02;101376.59;;;24.79;64.52
33404;BME280;19751;40.274;18.268;2022-07-12T06:10:28;101367.00;;;24.82;62.79
33404;BME280;19751;40.274;18.268;2022-07-12T06:12:53;101381.06;;;24.85;62.69
33404;BME280;19751;40.274;18.268;2022-07-12T06:15:19;101383.81;;;24.90;61.93
33404;BME280;19751;40.274;18.268;2022-07-12T06:17:45;101387.41;;;24.91;58.35
33404;BME280;19751;40.274;18.268;2022-07-12T06:20:10;101380.53;;;24.93;58.01
33404;BME280;19751;40.274;18.268;2022-07-12T06:22:36;101383.84;;;24.95;59.00
33404;BME280;19751;40.274;18.268;2022-07-12T06:25:02;101386.88;;;24.99;58.89
33404;BME280;19751;40.274;18.268;2022-07-12T06:27:27;101387.19;;;25.02;59.43
33404;BME280;19751;40.274;18.268;2022-07-12T06:29:53;101393.53;;;25.08;58.05
33404;BME280;19751;40.274;18.268;2022-07-12T06:32:18;101400.19;;;25.12;54.60
33404;BME280;19751;40.274;18.268;2022-07-12T06:34:44;101390.56;;;25.15;49.52
33404;BME280;19751;40.274;18.268;2022-07-12T06:37:10;101392.78;;;25.18;48.32
33404;BME280;19751;40.274;18.268;2022-07-12T06:39:36;101391.97;;;25.22;47.36
33404;BME280;19751;40.274;18.268;2022-07-12T06:42:02;101393.91;;;25.27;47.92
33404;BME280;19751;40.274;18.268;2022-07-12T06:44:31;101390.03;;;25.33;48.08
33404;BME280;19751;40.274;18.268;2022-07-12T06:46:58;101384.28;;;25.35;48.40
33404;BME280;19751;40.274;18.268;2022-07-12T06:49:24;101397.50;;;25.38;49.34
33404;BME280;19751;40.274;18.268;2022-07-12T06:51:49;101403.56;;;25.40;46.59
33404;BME280;19751;40.274;18.268;2022-07-12T06:54:15;101404.13;;;25.42;41.46
33404;BME280;19751;40.274;18.268;2022-07-12T06:56:40;101398.88;;;25.45;40.61
33404;BME280;19751;40.274;18.268;2022-07-12T06:59:06;101407.16;;;25.50;41.13
33404;BME280;19751;40.274;18.268;2022-07-12T07:01:36;101400.28;;;25.53;40.43
33404;BME280;19751;40.274;18.268;2022-07-12T07:04:03;101395.06;;;25.57;41.06
33404;BME280;19751;40.274;18.268;2022-07-12T07:06:28;101407.47;;;25.59;39.45
33404;BME280;19751;40.274;18.268;2022-07-12T07:08:54;101401.13;;;25.64;40.15
33404;BME280;19751;40.274;18.268;2022-07-12T07:11:20;101416.03;;;25.68;40.35
33404;BME280;19751;40.274;18.268;2022-07-12T07:13:45;101413.56;;;25.71;41.51
33404;BME280;19751;40.274;18.268;2022-07-12T07:16:12;101413.56;;;25.71;40.52
33404;BME280;19751;40.274;18.268;2022-07-12T07:18:39;101407.47;;;25.74;39.30
33404;BME280;19751;40.274;18.268;2022-07-12T07:21:06;101404.47;;;25.76;38.55
33404;BME280;19751;40.274;18.268;2022-07-12T07:23:32;101403.66;;;25.81;38.38
33404;BME280;19751;40.274;18.268;2022-07-12T07:25:58;101405.84;;;25.84;38.71
33404;BME280;19751;40.274;18.268;2022-07-12T07:28:23;101404.19;;;25.88;37.89
33404;BME280;19751;40.274;18.268;2022-07-12T07:30:49;101413.06;;;25.85;38.45
33404;BME280;19751;40.274;18.268;2022-07-12T07:33:22;101401.44;;;25.83;39.05
33404;BME280;19751;40.274;18.268;2022-07-12T07:35:48;101421.88;;;25.82;39.32
33404;BME280;19751;40.274;18.268;2022-07-12T07:38:15;101410.53;;;25.83;40.13
33404;BME280;19751;40.274;18.268;2022-07-12T07:40:41;101420.75;;;25.83;40.85
33404;BME280;19751;40.274;18.268;2022-07-12T07:43:07;101424.34;;;25.83;41.20
33404;BME280;19751;40.274;18.268;2022-07-12T07:45:33;101418.56;;;25.80;40.34
33404;BME280;19751;40.274;18.268;2022-07-12T07:47:58;101420.75;;;25.83;41.13
33404;BME280;19751;40.274;18.268;2022-07-12T07:50:24;101417.47;;;25.86;41.40
33404;BME280;19751;40.274;18.268;2022-07-12T07:52:49;101421.03;;;25.86;40.45
33404;BME280;19751;40.274;18.268;2022-07-12T07:55:17;101421.31;;;25.90;39.49
33404;BME280;19751;40.274;18.268;2022-07-12T07:57:42;101428.50;;;25.91;39.60
33404;BME280;19751;40.274;18.268;2022-07-12T08:00:08;101424.63;;;25.92;39.30
33404;BME280;19751;40.274;18.268;2022-07-12T08:02:34;101426.56;;;25.91;40.53
33404;BME280;19751;40.274;18.268;2022-07-12T08:05:00;101432.06;;;25.91;41.55
33404;BME280;19751;40.274;18.268;2022-07-12T08:07:25;101425.72;;;25.96;39.98
33404;BME280;19751;40.274;18.268;2022-07-12T08:09:51;101432.94;;;25.97;38.84
33404;BME280;19751;40.274;18.268;2022-07-12T08:12:16;101433.47;;;25.99;37.53
33404;BME280;19751;40.274;18.268;2022-07-12T08:14:42;101425.75;;;26.01;38.23
33404;BME280;19751;40.274;18.268;2022-07-12T08:17:07;101424.09;;;26.05;39.18
33404;BME280;19751;40.274;18.268;2022-07-12T08:19:33;101453.09;;;26.13;38.71
33404;BME280;19751;40.274;18.268;2022-07-12T08:21:58;101438.41;;;26.12;38.28
33404;BME280;19751;40.274;18.268;2022-07-12T08:24:24;101445.63;;;26.18;39.44
33404;BME280;19751;40.274;18.268;2022-07-12T08:26:50;101458.84;;;26.16;39.68
33404;BME280;19751;40.274;18.268;2022-07-12T08:29:15;101451.69;;;26.15;39.63
33404;BME280;19751;40.274;18.268;2022-07-12T08:31:41;101448.09;;;26.15;38.53
33404;BME280;19751;40.274;18.268;2022-07-12T08:34:06;101436.75;;;26.16;38.18
33404;BME280;19751;40.274;18.268;2022-07-12T08:36:32;101435.09;;;26.20;36.67
33404;BME280;19751;40.274;18.268;2022-07-12T08:38:58;101443.38;;;26.20;36.20
33404;BME280;19751;40.274;18.268;2022-07-12T08:41:23;101445.59;;;26.23;36.38
33404;BME280;19751;40.274;18.268;2022-07-12T08:43:49;101442.28;;;26.26;37.30
33404;BME280;19751;40.274;18.268;2022-07-12T08:46:15;101424.31;;;26.29;35.29
33404;BME280;19751;40.274;18.268;2022-07-12T08:48:42;101465.47;;;26.36;35.19
33404;BME280;19751;40.274;18.268;2022-07-12T08:51:10;101448.34;;;26.39;33.88
33404;BME280;19751;40.274;18.268;2022-07-12T08:53:37;101449.72;;;26.41;34.12
33404;BME280;19751;40.274;18.268;2022-07-12T08:56:04;101448.34;;;26.44;34.45
33404;BME280;19751;40.274;18.268;2022-07-12T08:58:30;101440.63;;;26.46;34.22
33404;BME280;19751;40.274;18.268;2022-07-12T09:00:56;101453.06;;;26.48;33.63
33404;BME280;19751;40.274;18.268;2022-07-12T09:03:21;101445.34;;;26.50;32.57
33404;BME280;19751;40.274;18.268;2022-07-12T09:05:57;101451.13;;;26.49;32.70
33404;BME280;19751;40.274;18.268;2022-07-12T09:08:31;101446.41;;;26.49;33.96
33404;BME280;19751;40.274;18.268;2022-07-12T09:11:02;101449.47;;;26.53;34.18
33404;BME280;19751;40.274;18.268;2022-07-12T09:13:49;101456.66;;;26.59;33.88
33404;BME280;19751;40.274;18.268;2022-07-12T09:16:16;101456.66;;;26.59;33.68
33404;BME280;19751;40.274;18.268;2022-07-12T09:18:43;101459.13;;;26.61;33.99
33404;BME280;19751;40.274;18.268;2022-07-12T09:21:09;101462.69;;;26.66;33.60
33404;BME280;19751;40.274;18.268;2022-07-12T09:23:35;101464.34;;;26.72;32.92
33404;BME280;19751;40.274;18.268;2022-07-12T09:26:07;101465.72;;;26.75;33.50
33404;BME280;19751;40.274;18.268;2022-07-12T09:28:33;101458.25;;;26.75;33.79
33404;BME280;19751;40.274;18.268;2022-07-12T09:30:59;101457.97;;;26.77;31.99
33404;BME280;19751;40.274;18.268;2022-07-12T09:33:25;101451.34;;;26.78;32.01
33404;BME280;19751;40.274;18.268;2022-07-12T09:36:09;101451.06;;;26.80;32.62
33404;BME280;19751;40.274;18.268;2022-07-12T09:38:48;101459.91;;;26.76;32.33
33404;BME280;19751;40.274;18.268;2022-07-12T09:41:17;101472.88;;;26.81;31.90
33404;BME280;19751;40.274;18.268;2022-07-12T09:43:44;101450.22;;;26.79;31.11
33404;BME280;19751;40.274;18.268;2022-07-12T09:46:10;101450.47;;;26.83;31.23
33404;BME280;19751;40.274;18.268;2022-07-12T09:48:36;101439.69;;;26.86;31.98
33404;BME280;19751;40.274;18.268;2022-07-12T09:51:03;101462.63;;;26.87;31.92
33404;BME280;19751;40.274;18.268;2022-07-12T09:53:44;101453.78;;;26.90;31.49
33404;BME280;19751;40.274;18.268;2022-07-12T09:56:11;101458.19;;;26.91;31.17
33404;BME280;19751;40.274;18.268;2022-07-12T09:58:53;101454.34;;;26.92;31.01
33404;BME280;19751;40.274;18.268;2022-07-12T10:01:20;101453.50;;;26.91;31.03
33404;BME280;19751;40.274;18.268;2022-07-12T10:03:46;101458.50;;;26.89;31.32
33404;BME280;19751;40.274;18.268;2022-07-12T10:06:16;101462.63;;;26.97;32.09
33404;BME280;19751;40.274;18.268;2022-07-12T10:08:42;101470.06;;;27.01;32.19
33404;BME280;19751;40.274;18.268;2022-07-12T10:11:08;101459.81;;;27.02;32.67
33404;BME280;19751;40.274;18.268;2022-07-12T10:13:34;101460.13;;;27.00;32.11
33404;BME280;19751;40.274;18.268;2022-07-12T10:16:02;101454.28;;;27.02;32.06
33404;BME280;19751;40.274;18.268;2022-07-12T10:18:28;101452.34;;;27.02;32.41
33404;BME280;19751;40.274;18.268;2022-07-12T10:20:54;101450.41;;;27.08;32.42
33404;BME280;19751;40.274;18.268;2022-07-12T10:25:46;101450.94;;;27.15;31.45
33404;BME280;19751;40.274;18.268;2022-07-12T10:28:13;101461.19;;;27.15;32.54
33404;BME280;19751;40.274;18.268;2022-07-12T10:30:49;101448.75;;;27.17;33.15
33404;BME280;19751;40.274;18.268;2022-07-12T10:33:21;101446.47;;;27.24;32.94
33404;BME280;19751;40.274;18.268;2022-07-12T10:36:00;101445.38;;;27.25;32.57
33404;BME280;19751;40.274;18.268;2022-07-12T10:38:26;101445.94;;;27.22;33.11
33404;BME280;19751;40.274;18.268;2022-07-12T10:40:53;101452.59;;;27.16;33.23
33404;BME280;19751;40.274;18.268;2022-07-12T10:43:27;101449.00;;;27.16;32.60
33404;BME280;19751;40.274;18.268;2022-07-12T10:46:21;101444.31;;;27.11;33.62
33404;BME280;19751;40.274;18.268;2022-07-12T10:48:47;101450.97;;;27.10;34.03
33404;BME280;19751;40.274;18.268;2022-07-12T10:51:14;101452.06;;;27.14;33.14
33404;BME280;19751;40.274;18.268;2022-07-12T10:53:40;101442.66;;;27.15;33.05
33404;BME280;19751;40.274;18.268;2022-07-12T10:56:17;101445.16;;;27.17;33.85
33404;BME280;19751;40.274;18.268;2022-07-12T10:58:49;101445.38;;;27.20;34.05
33404;BME280;19751;40.274;18.268;2022-07-12T11:01:20;101450.63;;;27.27;33.95
33404;BME280;19751;40.274;18.268;2022-07-12T11:03:53;101461.38;;;27.29;33.56
33404;BME280;19751;40.274;18.268;2022-07-12T11:06:21;101441.78;;;27.25;33.38
33404;BME280;19751;40.274;18.268;2022-07-12T11:08:48;101439.56;;;27.27;32.92
33404;BME280;19751;40.274;18.268;2022-07-12T11:11:14;101441.78;;;27.25;32.99
33404;BME280;19751;40.274;18.268;2022-07-12T11:13:40;101442.31;;;27.27;32.62
33404;BME280;19751;40.274;18.268;2022-07-12T11:16:05;101449.50;;;27.28;32.85
33404;BME280;19751;40.274;18.268;2022-07-12T11:18:32;101443.97;;;27.33;32.97
33404;BME280;19751;40.274;18.268;2022-07-12T11:20:59;101439.22;;;27.39;32.95
33404;BME280;19751;40.274;18.268;2022-07-12T11:23:26;101443.38;;;27.41;32.94
33404;BME280;19751;40.274;18.268;2022-07-12T11:26:00;101446.66;;;27.43;32.59
33404;BME280;19751;40.274;18.268;2022-07-12T11:28:30;101446.09;;;27.46;32.61
33404;BME280;19751;40.274;18.268;2022-07-12T11:31:10;101442.47;;;27.51;32.42
33404;BME280;19751;40.274;18.268;2022-07-12T11:33:38;101449.59;;;27.57;30.90
33404;BME280;19751;40.274;18.268;2022-07-12T11:36:06;101452.94;;;27.59;31.64
33404;BME280;19751;40.274;18.268;2022-07-12T11:38:34;101451.56;;;27.57;32.11
33404;BME280;19751;40.274;18.268;2022-07-12T11:41:01;101449.03;;;27.60;32.01
33404;BME280;19751;40.274;18.268;2022-07-12T11:43:28;101451.25;;;27.63;32.55
33404;BME280;19751;40.274;18.268;2022-07-12T11:45:54;101447.91;;;27.61;31.37
33404;BME280;19751;40.274;18.268;2022-07-12T11:48:20;101457.91;;;27.62;31.13
33404;BME280;19751;40.274;18.268;2022-07-12T11:50:47;101455.13;;;27.62;31.06
33404;BME280;19751;40.274;18.268;2022-07-12T11:53:24;101454.56;;;27.60;31.18
33404;BME280;19751;40.274;18.268;2022-07-12T11:55:53;101439.63;;;27.61;32.13
33404;BME280;19751;40.274;18.268;2022-07-12T11:58:22;101438.50;;;27.67;32.69
33404;BME280;19751;40.274;18.268;2022-07-12T12:00:48;101441.78;;;27.69;33.37
33404;BME280;19751;40.274;18.268;2022-07-12T12:03:17;101450.31;;;27.78;33.52
33404;BME280;19751;40.274;18.268;2022-07-12T12:05:45;101443.94;;;27.83;32.89
33404;BME280;19751;40.274;18.268;2022-07-12T12:08:13;101439.25;;;27.83;31.72
33404;BME280;19751;40.274;18.268;2022-07-12T12:10:41;101434.22;;;27.85;31.74
33404;BME280;19751;40.274;18.268;2022-07-12T12:13:16;101439.97;;;27.94;31.91
33404;BME280;19751;40.274;18.268;2022-07-12T12:15:49;101443.53;;;27.99;32.74
33404;BME280;19751;40.274;18.268;2022-07-12T12:18:15;101430.53;;;28.00;31.96
33404;BME280;19751;40.274;18.268;2022-07-12T12:20:41;101428.31;;;27.97;31.77
33404;BME280;19751;40.274;18.268;2022-07-12T12:23:25;101430.28;;;27.96;32.48
33404;BME280;19751;40.274;18.268;2022-07-12T12:25:51;101436.88;;;28.00;32.56
33404;BME280;19751;40.274;18.268;2022-07-12T12:28:17;101426.31;;;28.03;32.66
33404;BME280;19751;40.274;18.268;2022-07-12T12:33:40;101416.28;;;28.12;33.00
33404;BME280;19751;40.274;18.268;2022-07-12T12:38:54;101420.34;;;28.24;32.70
33404;BME280;19751;40.274;18.268;2022-07-12T12:41:21;101429.97;;;28.27;32.34
33404;BME280;19751;40.274;18.268;2022-07-12T12:44:16;101425.56;;;28.26;32.17
33404;BME280;19751;40.274;18.268;2022-07-12T12:46:53;101417.78;;;28.28;32.31
33404;BME280;19751;40.274;18.268;2022-07-12T12:49:47;101419.69;;;28.33;32.12